createdAt,value
2018-05-29T00:01:03.478Z,21.47
2018-05-29T00:03:36.658Z,21.05
2018-05-29T00:06:09.207Z,21.40
2018-05-29T00:08:42.368Z,20.70
2018-05-29T00:11:15.971Z,21.92
2018-05-29T00:13:48.592Z,21.37
2018-05-29T00:16:21.271Z,21.35
2018-05-29T00:18:53.666Z,21.92
2018-05-29T00:21:26.284Z,22.00
2018-05-29T00:23:58.666Z,22.60
2018-05-29T00:26:31.223Z,22.43
2018-05-29T00:29:04.628Z,22.23
2018-05-29T00:31:37.785Z,23.62
2018-05-29T00:34:10.951Z,23.97
2018-05-29T00:36:44.036Z,22.90
2018-05-29T00:39:17.298Z,23.60
2018-05-29T00:41:49.631Z,24.00
2018-05-29T00:44:22.220Z,22.17
2018-05-29T00:46:54.750Z,22.00
2018-05-29T00:49:27.233Z,21.15
2018-05-29T00:51:59.772Z,22.20
2018-05-29T00:54:32.160Z,22.00
2018-05-29T00:57:05.281Z,23.12
2018-05-29T00:59:37.867Z,21.77
2018-05-29T01:02:11.091Z,23.00
2018-05-29T01:04:44.279Z,23.48
2018-05-29T01:07:17.468Z,23.40
2018-05-29T01:09:49.907Z,24.10
2018-05-29T01:12:22.538Z,22.90
2018-05-29T01:14:55.740Z,23.13
2018-05-29T01:17:28.123Z,23.13
2018-05-29T01:20:00.537Z,22.83
2018-05-29T01:22:33.008Z,22.67
2018-05-29T01:25:05.467Z,23.27
2018-05-29T01:27:38.582Z,22.67
2018-05-29T01:30:11.348Z,22.27
2018-05-29T01:32:43.831Z,22.23
2018-05-29T01:35:16.301Z,23.37
2018-05-29T01:37:48.712Z,22.73
2018-05-29T01:40:21.133Z,22.57
2018-05-29T01:42:53.611Z,22.77
2018-05-29T01:45:26.147Z,23.33
2018-05-29T01:47:58.836Z,23.03
2018-05-29T01:50:31.261Z,22.63
2018-05-29T01:53:03.708Z,23.00
2018-05-29T01:55:36.088Z,22.77
2018-05-29T01:58:08.781Z,21.73
2018-05-29T02:00:41.242Z,22.37
2018-05-29T02:03:14.624Z,21.67
2018-05-29T02:05:46.953Z,20.60
2018-05-29T02:08:19.557Z,21.80
2018-05-29T02:10:52.076Z,22.33
2018-05-29T02:13:24.486Z,19.30
2018-05-29T02:15:57.078Z,20.67
2018-05-29T02:18:29.552Z,20.70
2018-05-29T02:21:01.924Z,21.37
2018-05-29T02:23:34.514Z,20.27
2018-05-29T02:26:07.632Z,20.60
2018-05-29T02:28:39.988Z,21.63
2018-05-29T02:31:12.406Z,19.70
2018-05-29T02:33:45.534Z,19.97
2018-05-29T02:36:18.206Z,20.63
2018-05-29T02:38:50.593Z,21.43
2018-05-29T02:41:23.797Z,21.97
2018-05-29T02:43:56.970Z,22.00
2018-05-29T02:46:29.659Z,20.73
2018-05-29T02:51:40.222Z,22.03
2018-05-29T02:54:12.611Z,20.03
2018-05-29T02:56:45.012Z,21.10
2018-05-29T02:59:18.072Z,21.17
2018-05-29T03:01:50.588Z,21.53
2018-05-29T03:04:23.794Z,20.17
2018-05-29T03:06:56.591Z,21.10
2018-05-29T03:09:29.250Z,22.00
2018-05-29T03:12:02.343Z,21.63
2018-05-29T03:14:34.849Z,20.50
2018-05-29T03:17:07.234Z,20.97
2018-05-29T03:19:39.549Z,21.13
2018-05-29T03:22:11.924Z,20.80
2018-05-29T03:24:45.831Z,20.77
2018-05-29T03:27:18.548Z,20.27
2018-05-29T03:29:50.988Z,21.03
2018-05-29T03:32:24.257Z,20.47
2018-05-29T03:34:56.833Z,19.53
2018-05-29T03:37:30.204Z,19.40
2018-05-29T03:40:03.629Z,20.57
2018-05-29T03:42:36.350Z,21.03
2018-05-29T03:45:08.777Z,20.07
2018-05-29T03:47:41.992Z,19.97
2018-05-29T03:50:15.936Z,21.23
2018-05-29T03:52:49.160Z,19.60
2018-05-29T03:55:22.269Z,20.63
2018-05-29T03:57:54.722Z,20.33
2018-05-29T04:00:27.218Z,19.20
2018-05-29T04:02:59.808Z,19.53
2018-05-29T04:05:32.242Z,20.30
2018-05-29T04:08:04.623Z,19.90
2018-05-29T04:10:37.132Z,20.73
2018-05-29T04:13:10.458Z,20.37
2018-05-29T04:15:43.661Z,19.40
2018-05-29T04:18:16.292Z,19.77
2018-05-29T04:20:48.743Z,19.20
2018-05-29T04:23:21.538Z,19.12
2018-05-29T04:25:54.023Z,19.03
2018-05-29T04:28:27.123Z,18.23
2018-05-29T04:30:59.419Z,18.02
2018-05-29T04:33:32.064Z,18.40
2018-05-29T04:36:04.637Z,18.43
2018-05-29T04:38:37.785Z,18.23
2018-05-29T04:41:10.999Z,18.55
2018-05-29T04:43:43.572Z,18.62
2018-05-29T04:46:16.171Z,17.62
2018-05-29T04:48:49.342Z,18.15
2018-05-29T04:51:21.924Z,18.15
2018-05-29T04:53:55.827Z,16.40
2018-05-29T04:56:29.038Z,16.60
2018-05-29T04:59:01.729Z,16.55
2018-05-29T05:01:34.412Z,16.55
2018-05-29T05:04:07.750Z,15.93
2018-05-29T05:06:44.077Z,16.35
2018-05-29T05:09:16.709Z,15.98
2018-05-29T05:11:49.219Z,15.98
2018-05-29T05:14:21.823Z,15.70
2018-05-29T05:16:54.448Z,15.85
2018-05-29T05:19:27.587Z,15.90
2018-05-29T05:22:00.044Z,16.45
2018-05-29T05:24:32.469Z,15.98
2018-05-29T05:27:05.791Z,15.43
2018-05-29T05:29:38.465Z,15.45
2018-05-29T05:32:10.990Z,15.75
2018-05-29T05:34:43.679Z,14.57
2018-05-29T05:37:16.152Z,13.48
2018-05-29T05:39:48.732Z,14.55
2018-05-29T05:42:25.516Z,13.30
2018-05-29T05:44:57.869Z,12.27
2018-05-29T05:47:30.604Z,13.93
2018-05-29T05:50:03.915Z,13.88
2018-05-29T05:52:36.493Z,12.98
2018-05-29T05:55:09.148Z,13.18
2018-05-29T05:57:41.809Z,13.50
2018-05-29T06:00:14.258Z,13.10
2018-05-29T06:02:46.689Z,14.25
2018-05-29T06:05:19.328Z,13.80
2018-05-29T06:07:52.032Z,13.10
2018-05-29T06:10:25.163Z,13.45
2018-05-29T06:12:58.405Z,13.23
2018-05-29T06:15:31.603Z,13.07
2018-05-29T06:18:04.024Z,13.50
2018-05-29T06:20:36.538Z,12.77
2018-05-29T06:23:09.105Z,12.93
2018-05-29T06:25:41.474Z,12.90
2018-05-29T06:28:13.892Z,13.88
2018-05-29T06:30:46.269Z,12.10
2018-05-29T06:33:18.746Z,12.32
2018-05-29T06:35:51.362Z,12.90
2018-05-29T06:38:23.763Z,12.75
2018-05-29T06:41:00.568Z,12.68
2018-05-29T06:43:33.179Z,12.05
2018-05-29T06:46:06.488Z,11.30
2018-05-29T06:48:38.893Z,12.43
2018-05-29T06:51:11.369Z,11.73
2018-05-29T06:53:43.861Z,13.00
2018-05-29T06:56:16.514Z,12.15
2018-05-29T06:58:49.671Z,12.95
2018-05-29T07:01:22.332Z,11.60
2018-05-29T07:03:55.092Z,10.85
2018-05-29T07:06:27.382Z,11.90
2018-05-29T07:08:59.850Z,11.65
2018-05-29T07:11:32.845Z,11.95
2018-05-29T07:14:05.403Z,13.43
2018-05-29T07:16:38.466Z,13.23
2018-05-29T07:19:11.016Z,12.88
2018-05-29T07:21:43.442Z,11.32
2018-05-29T07:24:15.808Z,11.50
2018-05-29T07:26:49.185Z,11.18
2018-05-29T07:29:21.863Z,12.05
2018-05-29T07:31:54.384Z,11.70
2018-05-29T07:34:26.842Z,10.70
2018-05-29T07:36:59.352Z,11.07
2018-05-29T07:39:31.856Z,10.95
2018-05-29T07:42:04.564Z,11.27
2018-05-29T07:44:37.004Z,11.70
2018-05-29T07:47:09.549Z,11.50
2018-05-29T07:49:41.994Z,12.15
2018-05-29T07:52:14.484Z,11.52
2018-05-29T07:54:47.137Z,11.80
2018-05-29T07:57:19.797Z,11.85
2018-05-29T07:59:52.987Z,11.48
2018-05-29T08:02:25.470Z,11.95
2018-05-29T08:04:58.030Z,12.00
2018-05-29T08:07:30.364Z,12.18
2018-05-29T08:10:03.742Z,11.90
2018-05-29T08:12:39.585Z,11.60
2018-05-29T08:15:12.202Z,12.15
2018-05-29T08:17:44.714Z,12.25
2018-05-29T08:20:18.666Z,11.57
2018-05-29T08:22:51.068Z,11.48
2018-05-29T08:25:23.424Z,12.50
2018-05-29T08:27:55.962Z,11.80
2018-05-29T08:30:28.473Z,13.55
2018-05-29T08:33:01.712Z,12.07
2018-05-29T08:35:34.054Z,11.75
2018-05-29T08:40:46.523Z,11.85
2018-05-29T08:43:23.485Z,11.63
2018-05-29T08:45:55.943Z,12.23
2018-05-29T08:48:28.339Z,11.95
2018-05-29T08:51:01.698Z,12.77
2018-05-29T08:53:34.310Z,11.50
2018-05-29T08:56:07.431Z,12.23
2018-05-29T08:58:40.682Z,11.90
2018-05-29T09:01:13.965Z,12.32
2018-05-29T09:03:46.398Z,12.32
2018-05-29T09:06:19.018Z,12.37
2018-05-29T09:08:51.444Z,13.27
2018-05-29T09:11:23.847Z,12.37
2018-05-29T09:13:56.491Z,11.80
2018-05-29T09:16:29.090Z,12.48
2018-05-29T09:19:01.459Z,12.82
2018-05-29T09:21:34.069Z,13.75
2018-05-29T09:24:06.509Z,12.48
2018-05-29T09:26:40.630Z,12.90
2018-05-29T09:29:13.194Z,12.30
2018-05-29T09:31:45.735Z,12.75
2018-05-29T09:34:18.321Z,12.30
2018-05-29T09:36:50.684Z,12.05
2018-05-29T09:39:23.851Z,13.20
2018-05-29T09:41:57.069Z,12.27
2018-05-29T09:44:30.238Z,11.95
2018-05-29T09:47:03.380Z,12.02
2018-05-29T09:49:36.668Z,12.65
2018-05-29T09:52:09.939Z,11.90
2018-05-29T09:54:43.239Z,11.80
2018-05-29T09:57:16.500Z,11.30
2018-05-29T09:59:49.702Z,11.95
2018-05-29T10:02:22.245Z,11.77
2018-05-29T10:04:54.687Z,12.10
2018-05-29T10:07:27.164Z,12.02
2018-05-29T10:09:59.839Z,11.80
2018-05-29T10:12:32.404Z,12.43
2018-05-29T10:15:05.217Z,11.73
2018-05-29T10:17:37.797Z,12.25
2018-05-29T10:20:10.368Z,13.43
2018-05-29T10:22:42.883Z,13.62
2018-05-29T10:25:18.823Z,12.00
2018-05-29T10:27:51.433Z,12.73
2018-05-29T10:30:31.163Z,12.00
2018-05-29T10:33:03.928Z,12.35
2018-05-29T10:35:36.439Z,12.27
2018-05-29T10:38:09.163Z,11.75
2018-05-29T10:40:41.842Z,11.73
2018-05-29T10:43:14.498Z,12.13
2018-05-29T10:45:47.514Z,12.23
2018-05-29T10:48:20.774Z,12.30
2018-05-29T10:50:53.964Z,13.50
2018-05-29T10:53:30.369Z,12.95
2018-05-29T10:56:03.584Z,12.25
2018-05-29T10:58:36.809Z,13.02
2018-05-29T11:01:09.188Z,13.27
2018-05-29T11:03:42.453Z,13.90
2018-05-29T11:06:14.853Z,12.57
2018-05-29T11:08:47.789Z,12.10
2018-05-29T11:11:20.416Z,12.80
2018-05-29T11:13:52.809Z,12.05
2018-05-29T11:16:25.424Z,12.20
2018-05-29T11:18:58.124Z,12.68
2018-05-29T11:21:30.518Z,12.68
2018-05-29T11:24:03.203Z,12.48
2018-05-29T11:26:35.580Z,12.82
2018-05-29T11:29:08.724Z,12.60
2018-05-29T11:31:42.099Z,12.37
2018-05-29T11:34:14.569Z,13.30
2018-05-29T11:36:47.090Z,12.18
2018-05-29T11:39:19.561Z,12.57
2018-05-29T11:41:52.787Z,12.30
2018-05-29T11:44:26.636Z,11.63
2018-05-29T11:46:59.847Z,12.35
2018-05-29T11:49:32.281Z,11.63
2018-05-29T11:52:04.908Z,11.40
2018-05-29T11:54:37.545Z,11.73
2018-05-29T11:57:10.188Z,11.10
2018-05-29T11:59:42.593Z,11.27
2018-05-29T12:02:15.011Z,11.32
2018-05-29T12:04:49.188Z,12.13
2018-05-29T12:07:21.607Z,11.57
2018-05-29T12:09:54.194Z,11.98
2018-05-29T12:12:26.924Z,11.32
2018-05-29T12:14:59.506Z,11.60
2018-05-29T12:17:32.093Z,12.02
2018-05-29T12:20:05.394Z,12.32
2018-05-29T12:22:38.946Z,12.10
2018-05-29T12:25:11.568Z,11.70
2018-05-29T12:27:44.203Z,11.80
2018-05-29T12:30:16.949Z,11.00
2018-05-29T12:32:49.434Z,10.82
2018-05-29T12:35:22.208Z,11.10
2018-05-29T12:37:55.605Z,10.75
2018-05-29T12:40:28.886Z,10.90
2018-05-29T12:43:01.316Z,11.88
2018-05-29T12:45:34.009Z,11.48
2018-05-29T12:48:06.610Z,10.73
2018-05-29T12:50:39.381Z,11.80
2018-05-29T12:53:12.020Z,11.35
2018-05-29T12:55:44.578Z,10.88
2018-05-29T12:58:17.759Z,10.90
2018-05-29T13:00:50.411Z,10.48
2018-05-29T13:03:23.702Z,10.95
2018-05-29T13:05:57.295Z,10.65
2018-05-29T13:08:29.756Z,10.88
2018-05-29T13:11:02.425Z,10.38
2018-05-29T13:13:35.074Z,11.27
2018-05-29T13:16:14.580Z,10.88
2018-05-29T13:18:47.159Z,11.05
2018-05-29T13:21:19.891Z,11.30
2018-05-29T13:23:52.464Z,11.95
2018-05-29T13:26:25.176Z,11.68
2018-05-29T13:28:57.833Z,11.05
2018-05-29T13:31:31.030Z,11.48
2018-05-29T13:34:03.529Z,11.90
2018-05-29T13:36:35.996Z,10.43
2018-05-29T13:39:08.692Z,10.60
2018-05-29T13:41:41.403Z,10.52
2018-05-29T13:44:13.998Z,10.65
2018-05-29T13:46:46.545Z,12.07
2018-05-29T13:49:19.214Z,11.80
2018-05-29T13:51:52.369Z,12.55
2018-05-29T13:54:25.058Z,13.50
2018-05-29T13:56:57.894Z,11.60
2018-05-29T13:59:31.267Z,11.15
2018-05-29T14:02:03.880Z,10.75
2018-05-29T14:04:37.198Z,11.00
2018-05-29T14:07:10.671Z,10.80
2018-05-29T14:09:43.249Z,10.63
2018-05-29T14:12:15.750Z,10.73
2018-05-29T14:14:48.499Z,10.32
2018-05-29T14:17:21.038Z,10.60
2018-05-29T14:19:54.244Z,10.82
2018-05-29T14:22:26.727Z,10.65
2018-05-29T14:25:00.329Z,11.15
2018-05-29T14:27:32.836Z,12.00
2018-05-29T14:30:05.714Z,11.40
2018-05-29T14:32:38.233Z,12.13
2018-05-29T14:35:10.894Z,11.90
2018-05-29T14:37:43.414Z,11.35
2018-05-29T14:40:16.129Z,12.02
2018-05-29T14:42:48.775Z,11.48
2018-05-29T14:45:21.319Z,11.68
2018-05-29T14:47:53.793Z,11.70
2018-05-29T14:50:27.261Z,11.20
2018-05-29T14:52:59.809Z,11.10
2018-05-29T14:55:32.483Z,12.25
2018-05-29T14:58:05.160Z,12.95
2018-05-29T15:00:38.442Z,12.18
2018-05-29T15:03:11.010Z,12.27
2018-05-29T15:05:43.818Z,11.38
2018-05-29T15:08:16.400Z,11.45
2018-05-29T15:10:49.171Z,11.60
2018-05-29T15:13:21.789Z,11.57
2018-05-29T15:15:59.598Z,12.98
2018-05-29T15:18:32.099Z,11.68
2018-05-29T15:21:05.381Z,10.98
2018-05-29T15:23:37.986Z,11.18
2018-05-29T15:26:10.456Z,10.20
2018-05-29T15:28:43.175Z,8.93
2018-05-29T15:31:15.575Z,8.63
2018-05-29T15:33:48.801Z,9.52
2018-05-29T15:36:22.188Z,9.70
2018-05-29T15:38:54.752Z,7.18
2018-05-29T15:41:28.009Z,6.60
2018-05-29T15:44:01.269Z,6.43
2018-05-29T15:46:33.776Z,5.75
2018-05-29T15:49:07.293Z,5.50
2018-05-29T15:51:40.428Z,5.95
2018-05-29T15:54:13.615Z,5.18
2018-05-29T15:56:46.122Z,5.53
2018-05-29T15:59:18.670Z,6.10
2018-05-29T16:01:51.085Z,6.90
2018-05-29T16:04:23.457Z,7.12
2018-05-29T16:06:56.619Z,5.60
2018-05-29T16:09:29.814Z,5.95
2018-05-29T16:12:03.111Z,5.55
2018-05-29T16:14:35.696Z,6.43
2018-05-29T16:17:08.879Z,6.80
2018-05-29T16:19:41.510Z,6.35
2018-05-29T16:22:14.023Z,6.53
2018-05-29T16:24:46.671Z,7.47
2018-05-29T16:27:19.148Z,7.90
2018-05-29T16:29:52.275Z,8.27
2018-05-29T16:32:24.938Z,7.37
2018-05-29T16:34:57.678Z,9.02
2018-05-29T16:37:30.136Z,7.93
2018-05-29T16:40:02.665Z,7.60
2018-05-29T16:42:35.377Z,7.80
2018-05-29T16:45:07.840Z,8.20
2018-05-29T16:47:41.283Z,7.37
2018-05-29T16:50:14.175Z,8.13
2018-05-29T16:52:46.980Z,9.00
2018-05-29T16:55:19.749Z,7.25
2018-05-29T16:57:52.484Z,8.35
2018-05-29T17:00:25.040Z,9.10
2018-05-29T17:02:57.612Z,9.45
2018-05-29T17:05:30.000Z,8.68
2018-05-29T17:08:02.711Z,9.63
2018-05-29T17:10:36.096Z,9.10
2018-05-29T17:13:09.348Z,9.10
2018-05-29T17:15:41.945Z,10.25
2018-05-29T17:18:14.449Z,9.90
2018-05-29T17:20:47.156Z,9.98
2018-05-29T17:23:25.631Z,10.20
2018-05-29T17:25:58.198Z,9.35
2018-05-29T17:28:30.765Z,9.30
2018-05-29T17:31:03.315Z,10.02
2018-05-29T17:33:36.074Z,10.82
2018-05-29T17:36:08.577Z,10.65
2018-05-29T17:38:41.274Z,10.20
2018-05-29T17:41:14.412Z,9.57
2018-05-29T17:43:47.313Z,9.85
2018-05-29T17:46:19.971Z,9.60
2018-05-29T17:48:52.857Z,8.85
2018-05-29T17:51:25.805Z,9.30
2018-05-29T17:53:58.791Z,9.88
2018-05-29T17:56:32.488Z,9.38
2018-05-29T17:59:05.377Z,9.93
2018-05-29T18:01:37.855Z,10.45
2018-05-29T18:04:10.936Z,10.60
2018-05-29T18:06:43.696Z,11.25
2018-05-29T18:09:16.382Z,10.65
2018-05-29T18:11:49.285Z,11.07
2018-05-29T18:14:21.844Z,10.25
2018-05-29T18:16:54.504Z,11.23
2018-05-29T18:19:28.021Z,11.73
2018-05-29T18:22:01.950Z,11.40
2018-05-29T18:24:35.168Z,11.73
2018-05-29T18:27:08.765Z,11.35
2018-05-29T18:29:41.306Z,11.80
2018-05-29T18:32:16.148Z,12.65
2018-05-29T18:34:49.309Z,11.75
2018-05-29T18:37:22.633Z,11.07
2018-05-29T18:39:55.299Z,11.25
2018-05-29T18:42:27.926Z,12.13
2018-05-29T18:45:00.585Z,11.35
2018-05-29T18:47:33.136Z,12.90
2018-05-29T18:50:05.837Z,12.37
2018-05-29T18:52:39.927Z,12.23
2018-05-29T18:55:12.642Z,12.43
2018-05-29T18:57:45.370Z,13.70
2018-05-29T19:00:18.040Z,12.30
2018-05-29T19:02:50.464Z,12.20
2018-05-29T19:05:22.862Z,13.62
2018-05-29T19:07:55.315Z,13.07
2018-05-29T19:10:27.969Z,13.32
2018-05-29T19:13:00.672Z,13.15
2018-05-29T19:15:33.301Z,11.68
2018-05-29T19:18:06.047Z,12.18
2018-05-29T19:20:38.728Z,13.10
2018-05-29T19:23:11.327Z,13.70
2018-05-29T19:25:44.091Z,14.93
2018-05-29T19:28:17.366Z,12.63
2018-05-29T19:30:50.046Z,13.00
2018-05-29T19:33:23.230Z,11.60
2018-05-29T19:35:55.691Z,14.30
2018-05-29T19:38:29.123Z,14.27
2018-05-29T19:41:02.361Z,13.75
2018-05-29T19:43:34.942Z,14.38
2018-05-29T19:46:07.777Z,13.38
2018-05-29T19:48:40.369Z,14.38
2018-05-29T19:51:13.625Z,12.93
2018-05-29T19:53:46.207Z,13.02
2018-05-29T19:56:19.381Z,14.23
2018-05-29T19:58:52.102Z,13.50
2018-05-29T20:01:24.854Z,14.63
2018-05-29T20:03:57.569Z,13.65
2018-05-29T20:06:30.122Z,13.50
2018-05-29T20:09:04.363Z,13.48
2018-05-29T20:11:37.131Z,13.00
2018-05-29T20:14:09.584Z,13.13
2018-05-29T20:16:42.579Z,14.43
2018-05-29T20:19:15.091Z,13.20
2018-05-29T20:21:47.698Z,13.93
2018-05-29T20:24:20.320Z,16.00
2018-05-29T20:26:52.954Z,14.57
2018-05-29T20:29:25.479Z,14.18
2018-05-29T20:31:58.089Z,14.40
2018-05-29T20:34:31.198Z,14.40
2018-05-29T20:37:03.864Z,13.77
2018-05-29T20:39:36.623Z,14.65
2018-05-29T20:42:09.370Z,13.48
2018-05-29T20:44:42.160Z,13.62
2018-05-29T20:47:14.734Z,13.68
2018-05-29T20:49:48.394Z,13.62
2018-05-29T20:52:21.155Z,14.82
2018-05-29T20:54:53.788Z,13.27
2018-05-29T20:57:26.423Z,13.27
2018-05-29T20:59:58.979Z,14.35
2018-05-29T21:02:31.773Z,13.77
2018-05-29T21:05:04.340Z,12.75
2018-05-29T21:07:37.042Z,12.65
2018-05-29T21:10:09.593Z,12.85
2018-05-29T21:12:42.293Z,12.63
2018-05-29T21:15:14.927Z,13.23
2018-05-29T21:17:47.567Z,11.98
2018-05-29T21:20:20.223Z,11.18
2018-05-29T21:22:53.961Z,12.52
2018-05-29T21:25:27.284Z,11.00
2018-05-29T21:28:00.016Z,11.85
2018-05-29T21:30:32.632Z,11.48
2018-05-29T21:33:05.303Z,11.27
2018-05-29T21:35:38.409Z,11.10
2018-05-29T21:38:11.607Z,11.32
2018-05-29T21:40:44.816Z,10.65
2018-05-29T21:43:17.290Z,10.98
2018-05-29T21:45:50.784Z,12.80
2018-05-29T21:48:23.235Z,12.13
2018-05-29T21:50:56.110Z,12.52
2018-05-29T21:53:28.510Z,11.48
2018-05-29T21:56:00.956Z,11.80
2018-05-29T21:58:33.394Z,12.25
2018-05-29T22:01:06.129Z,12.98
2018-05-29T22:03:39.476Z,12.70
2018-05-29T22:06:12.051Z,12.32
2018-05-29T22:08:44.646Z,11.95
2018-05-29T22:11:17.335Z,13.40
2018-05-29T22:13:49.938Z,13.45
2018-05-29T22:16:23.151Z,13.73
2018-05-29T22:18:56.256Z,13.73
2018-05-29T22:21:29.155Z,14.98
2018-05-29T22:24:01.655Z,14.68
2018-05-29T22:26:34.195Z,14.20
2018-05-29T22:29:06.826Z,15.73
2018-05-29T22:31:39.340Z,17.15
2018-05-29T22:34:11.800Z,15.30
2018-05-29T22:36:51.095Z,15.45
2018-05-29T22:39:23.643Z,16.67
2018-05-29T22:41:56.271Z,16.70
2018-05-29T22:44:28.687Z,16.45
2018-05-29T22:47:01.426Z,17.58
2018-05-29T22:49:34.083Z,17.85
2018-05-29T22:52:06.811Z,18.95
2018-05-29T22:54:39.549Z,17.60
2018-05-29T22:57:12.518Z,18.80
2018-05-29T22:59:45.101Z,19.37
2018-05-29T23:02:18.050Z,19.58
2018-05-29T23:04:51.568Z,19.40
2018-05-29T23:07:24.274Z,20.65
2018-05-29T23:09:56.774Z,21.00
2018-05-29T23:12:29.470Z,20.52
2018-05-29T23:15:02.127Z,21.58
2018-05-29T23:17:42.071Z,20.85
2018-05-29T23:20:15.008Z,21.50
2018-05-29T23:22:47.828Z,23.65
2018-05-29T23:25:21.297Z,20.17
2018-05-29T23:30:33.361Z,21.85
2018-05-29T23:33:06.159Z,21.02
2018-05-29T23:35:39.379Z,20.35
2018-05-29T23:38:11.891Z,20.45
2018-05-29T23:40:45.199Z,20.12
2018-05-29T23:43:17.769Z,20.58
2018-05-29T23:45:50.569Z,21.75
2018-05-29T23:48:23.332Z,19.92
2018-05-29T23:50:56.660Z,19.45
2018-05-29T23:53:29.013Z,18.92
2018-05-29T23:56:02.332Z,18.70
2018-05-29T23:58:34.775Z,18.02
